createdAt,value
2022-12-25T00:01:51.646Z,6.94
2022-12-25T00:04:25.432Z,6.94
2022-12-25T00:06:59.914Z,6.97
2022-12-25T00:09:34.049Z,7.00
2022-12-25T00:12:08.795Z,6.96
2022-12-25T00:14:42.318Z,6.89
2022-12-25T00:17:16.379Z,6.82
2022-12-25T00:19:50.383Z,6.77
2022-12-25T00:22:24.075Z,6.80
2022-12-25T00:24:57.907Z,6.79
2022-12-25T00:27:32.795Z,6.79
2022-12-25T00:30:08.220Z,6.77
2022-12-25T00:32:42.465Z,6.72
2022-12-25T00:35:15.930Z,6.71
2022-12-25T00:37:49.433Z,6.69
2022-12-25T00:40:23.036Z,6.61
2022-12-25T00:42:56.653Z,6.58
2022-12-25T00:45:30.197Z,6.61
2022-12-25T00:48:03.881Z,6.61
2022-12-25T00:50:39.376Z,6.59
2022-12-25T00:53:13.044Z,6.59
2022-12-25T00:55:46.590Z,6.58
2022-12-25T00:58:20.071Z,6.55
2022-12-25T01:00:54.551Z,6.50
2022-12-25T01:03:29.160Z,6.46
2022-12-25T01:06:05.281Z,6.46
2022-12-25T01:09:01.351Z,6.45
2022-12-25T01:11:35.520Z,6.46
2022-12-25T01:14:10.452Z,6.45
2022-12-25T01:16:43.953Z,6.47
2022-12-25T01:19:17.261Z,6.46
2022-12-25T01:21:51.296Z,6.47
2022-12-25T01:24:24.784Z,6.42
2022-12-25T01:26:58.781Z,6.37
2022-12-25T01:29:32.355Z,6.39
2022-12-25T01:32:06.837Z,6.43
2022-12-25T01:34:40.409Z,6.44
2022-12-25T01:37:14.372Z,6.46
2022-12-25T01:39:48.337Z,6.47
2022-12-25T01:42:24.054Z,6.50
2022-12-25T01:45:39.789Z,6.54
2022-12-25T01:48:20.404Z,6.58
2022-12-25T01:50:59.214Z,6.62
2022-12-25T01:53:33.444Z,6.63
2022-12-25T01:56:10.177Z,6.65
2022-12-25T01:58:44.644Z,6.66
2022-12-25T02:01:18.415Z,6.63
2022-12-25T02:03:53.267Z,6.55
2022-12-25T02:06:27.514Z,6.51
2022-12-25T02:09:02.045Z,6.44
2022-12-25T02:11:53.471Z,6.36
2022-12-25T02:14:29.435Z,6.29
2022-12-25T02:17:09.279Z,6.23
2022-12-25T02:20:01.880Z,6.17
2022-12-25T02:22:46.961Z,6.19
2022-12-25T02:25:38.321Z,6.21
2022-12-25T02:28:18.336Z,6.21
2022-12-25T02:31:01.519Z,6.20
2022-12-25T02:33:59.897Z,6.22
2022-12-25T02:36:40.592Z,6.22
2022-12-25T02:39:37.747Z,6.19
2022-12-25T02:42:21.339Z,6.23
2022-12-25T02:45:13.455Z,6.24
2022-12-25T02:48:04.858Z,6.24
2022-12-25T02:50:56.790Z,6.27
2022-12-25T02:53:49.335Z,6.29
2022-12-25T02:56:42.393Z,6.27
2022-12-25T02:59:36.399Z,6.28
2022-12-25T03:02:28.746Z,6.23
2022-12-25T03:05:26.404Z,6.22
2022-12-25T03:08:04.297Z,6.24
2022-12-25T03:10:59.587Z,6.27
2022-12-25T03:13:38.790Z,6.32
2022-12-25T03:16:30.070Z,6.33
2022-12-25T03:19:24.963Z,6.26
2022-12-25T03:22:16.867Z,6.22
2022-12-25T03:25:08.703Z,6.22
2022-12-25T03:27:44.582Z,6.24
2022-12-25T03:30:36.102Z,6.29
2022-12-25T03:33:43.967Z,6.26
2022-12-25T03:36:20.480Z,6.26
2022-12-25T03:39:28.083Z,6.27
2022-12-25T03:42:24.695Z,6.30
2022-12-25T03:45:23.000Z,6.29
2022-12-25T03:48:16.336Z,6.26
2022-12-25T03:51:13.582Z,6.24
2022-12-25T03:54:09.200Z,6.24
2022-12-25T03:57:02.833Z,6.27
2022-12-25T03:59:54.304Z,6.28
2022-12-25T04:02:45.720Z,6.27
2022-12-25T04:05:33.709Z,6.28
2022-12-25T04:08:36.532Z,6.30
2022-12-25T04:11:28.071Z,6.32
2022-12-25T04:14:19.636Z,6.36
2022-12-25T04:17:22.504Z,6.38
2022-12-25T04:20:13.640Z,6.43
2022-12-25T04:23:05.437Z,6.38
2022-12-25T04:25:57.025Z,6.35
2022-12-25T04:28:48.149Z,6.40
2022-12-25T04:31:39.121Z,6.48
2022-12-25T04:34:30.583Z,6.55
2022-12-25T04:37:04.435Z,6.61
2022-12-25T04:39:38.165Z,6.61
2022-12-25T04:42:13.069Z,6.56
2022-12-25T04:44:46.963Z,6.57
2022-12-25T04:47:20.780Z,6.62
2022-12-25T04:49:54.548Z,6.69
2022-12-25T04:52:28.387Z,6.75
2022-12-25T04:55:01.956Z,6.82
2022-12-25T04:57:35.684Z,6.87
2022-12-25T05:00:11.604Z,6.91
2022-12-25T05:02:45.200Z,6.91
2022-12-25T05:05:19.278Z,6.90
2022-12-25T05:07:53.224Z,6.88
2022-12-25T05:10:26.634Z,6.81
2022-12-25T05:13:00.379Z,6.81
2022-12-25T05:15:34.288Z,6.81
2022-12-25T05:18:08.161Z,6.81
2022-12-25T05:20:42.155Z,6.78
2022-12-25T05:23:16.250Z,6.78
2022-12-25T05:25:49.794Z,6.80
2022-12-25T05:28:23.606Z,6.80
2022-12-25T05:30:59.768Z,6.79
2022-12-25T05:33:33.668Z,6.79
2022-12-25T05:36:10.154Z,6.82
2022-12-25T05:38:43.928Z,6.84
2022-12-25T05:41:17.602Z,6.84
2022-12-25T05:43:51.506Z,6.89
2022-12-25T05:46:25.291Z,6.93
2022-12-25T05:48:59.183Z,6.95
2022-12-25T05:51:33.157Z,6.99
2022-12-25T05:54:06.915Z,7.02
2022-12-25T05:56:41.219Z,7.06
2022-12-25T05:59:15.359Z,7.11
2022-12-25T06:01:48.892Z,7.14
2022-12-25T06:04:22.443Z,7.18
2022-12-25T06:06:56.796Z,7.23
2022-12-25T06:09:30.763Z,7.27
2022-12-25T06:12:04.211Z,7.28
2022-12-25T06:14:38.544Z,7.27
2022-12-25T06:17:12.772Z,7.26
2022-12-25T06:19:47.324Z,7.24
2022-12-25T06:22:20.875Z,7.23
2022-12-25T06:24:54.944Z,7.24
2022-12-25T06:27:28.892Z,7.27
2022-12-25T06:30:02.754Z,7.28
2022-12-25T06:32:36.451Z,7.25
2022-12-25T06:35:11.444Z,7.20
2022-12-25T06:37:45.088Z,7.16
2022-12-25T06:40:19.173Z,7.16
2022-12-25T06:42:53.217Z,7.18
2022-12-25T06:45:26.948Z,7.20
2022-12-25T06:48:00.393Z,7.25
2022-12-25T06:50:34.235Z,7.28
2022-12-25T06:53:07.784Z,7.27
2022-12-25T06:55:41.171Z,7.22
2022-12-25T06:58:14.817Z,7.22
2022-12-25T07:00:48.305Z,7.23
2022-12-25T07:03:24.627Z,7.29
2022-12-25T07:05:58.300Z,7.33
2022-12-25T07:08:32.451Z,7.32
2022-12-25T07:11:06.540Z,7.37
2022-12-25T07:13:40.398Z,7.33
2022-12-25T07:16:14.914Z,7.37
2022-12-25T07:18:49.025Z,7.38
2022-12-25T07:21:23.400Z,7.40
2022-12-25T07:23:57.243Z,7.41
2022-12-25T07:26:30.915Z,7.37
2022-12-25T07:29:04.739Z,7.38
2022-12-25T07:31:38.621Z,7.42
2022-12-25T07:34:12.327Z,7.43
2022-12-25T07:36:45.905Z,7.47
2022-12-25T07:39:20.297Z,7.53
2022-12-25T07:41:54.447Z,7.54
2022-12-25T07:44:28.024Z,7.54
2022-12-25T07:47:01.782Z,7.55
2022-12-25T07:49:35.712Z,7.53
2022-12-25T07:52:09.715Z,7.54
2022-12-25T07:54:43.184Z,7.56
2022-12-25T07:57:17.152Z,7.58
2022-12-25T07:59:50.634Z,7.57
2022-12-25T08:02:29.093Z,7.60
2022-12-25T08:05:03.230Z,7.59
2022-12-25T08:07:37.292Z,7.65
2022-12-25T08:10:12.832Z,7.73
2022-12-25T08:12:46.543Z,7.75
2022-12-25T08:15:20.059Z,7.75
2022-12-25T08:17:53.563Z,7.76
2022-12-25T08:20:27.290Z,7.78
2022-12-25T08:23:00.931Z,7.81
2022-12-25T08:25:34.534Z,7.85
2022-12-25T08:28:08.511Z,7.87
2022-12-25T08:30:43.327Z,7.88
2022-12-25T08:33:17.121Z,7.88
2022-12-25T08:35:51.121Z,7.88
2022-12-25T08:38:24.884Z,7.89
2022-12-25T08:40:59.016Z,7.88
2022-12-25T08:43:32.574Z,7.89
2022-12-25T08:46:07.209Z,7.89
2022-12-25T08:48:42.978Z,7.92
2022-12-25T08:51:18.211Z,7.95
2022-12-25T08:53:53.058Z,7.96
2022-12-25T08:56:26.588Z,7.97
2022-12-25T08:59:00.603Z,8.00
2022-12-25T09:01:34.525Z,8.04
2022-12-25T09:04:08.809Z,8.07
2022-12-25T09:06:42.587Z,8.09
2022-12-25T09:09:16.457Z,8.11
2022-12-25T09:11:50.641Z,8.11
2022-12-25T09:14:24.322Z,8.11
2022-12-25T09:16:58.187Z,8.12
2022-12-25T09:19:32.376Z,8.12
2022-12-25T09:22:06.079Z,8.13
2022-12-25T09:24:41.067Z,8.17
2022-12-25T09:27:15.395Z,8.19
2022-12-25T09:29:49.531Z,8.21
2022-12-25T09:32:23.669Z,8.22
2022-12-25T09:34:57.873Z,8.24
2022-12-25T09:37:31.784Z,8.26
2022-12-25T09:40:06.015Z,8.28
2022-12-25T09:42:39.921Z,8.32
2022-12-25T09:45:20.118Z,8.36
2022-12-25T09:47:57.407Z,8.38
2022-12-25T09:50:41.317Z,8.39
2022-12-25T09:53:21.155Z,8.39
2022-12-25T09:56:01.908Z,8.41
2022-12-25T09:58:36.024Z,8.45
2022-12-25T10:01:18.377Z,8.46
2022-12-25T10:04:10.924Z,8.49
2022-12-25T10:06:54.321Z,8.51
2022-12-25T10:09:48.246Z,8.53
2022-12-25T10:12:34.283Z,8.57
2022-12-25T10:15:33.009Z,8.61
2022-12-25T10:18:34.046Z,8.65
2022-12-25T10:21:13.380Z,8.66
2022-12-25T10:23:53.893Z,8.67
2022-12-25T10:26:28.648Z,8.70
2022-12-25T10:29:07.055Z,8.76
2022-12-25T10:31:42.115Z,8.80
2022-12-25T10:34:18.289Z,8.81
2022-12-25T10:36:52.707Z,8.80
2022-12-25T10:39:27.819Z,8.83
2022-12-25T10:42:33.279Z,8.85
2022-12-25T10:45:09.783Z,8.87
2022-12-25T10:47:44.522Z,8.86
2022-12-25T10:50:24.840Z,8.84
2022-12-25T10:53:04.774Z,8.86
2022-12-25T10:55:38.462Z,8.85
2022-12-25T10:58:21.718Z,8.86
2022-12-25T11:01:02.754Z,8.86
2022-12-25T11:03:39.098Z,8.85
2022-12-25T11:06:26.434Z,8.82
2022-12-25T11:09:02.530Z,8.80
2022-12-25T11:11:38.647Z,8.78
2022-12-25T11:14:21.453Z,8.78
2022-12-25T11:16:55.283Z,8.79
2022-12-25T11:19:31.230Z,8.80
2022-12-25T11:22:06.919Z,8.80
2022-12-25T11:24:40.388Z,8.82
2022-12-25T11:27:26.579Z,8.83
2022-12-25T11:30:03.806Z,8.83
2022-12-25T11:32:44.796Z,8.85
2022-12-25T11:35:20.852Z,8.87
2022-12-25T11:37:55.977Z,8.89
2022-12-25T11:40:37.885Z,8.93
2022-12-25T11:43:18.137Z,8.94
2022-12-25T11:45:56.071Z,8.95
2022-12-25T11:48:33.671Z,8.96
2022-12-25T11:51:11.392Z,8.94
2022-12-25T11:53:51.508Z,8.92
2022-12-25T11:56:28.476Z,8.90
2022-12-25T11:59:12.488Z,8.90
2022-12-25T12:01:54.250Z,8.89
2022-12-25T12:04:40.238Z,8.89
2022-12-25T12:07:25.898Z,8.87
2022-12-25T12:10:05.413Z,8.85
2022-12-25T12:12:49.351Z,8.84
2022-12-25T12:15:31.406Z,8.82
2022-12-25T12:18:20.608Z,8.79
2022-12-25T12:21:06.360Z,8.74
2022-12-25T12:23:52.734Z,8.71
2022-12-25T12:26:28.128Z,8.70
2022-12-25T12:29:04.136Z,8.71
2022-12-25T12:31:46.272Z,8.71
2022-12-25T12:34:27.637Z,8.73
2022-12-25T12:37:06.570Z,8.74
2022-12-25T12:39:42.270Z,8.77
2022-12-25T12:42:26.292Z,8.79
2022-12-25T12:45:10.580Z,8.79
2022-12-25T12:47:46.889Z,8.79
2022-12-25T12:50:40.373Z,8.81
2022-12-25T12:53:38.450Z,8.79
2022-12-25T12:56:18.533Z,8.77
2022-12-25T12:58:53.096Z,8.74
2022-12-25T13:01:47.308Z,8.73
2022-12-25T13:04:50.766Z,8.72
2022-12-25T13:07:44.809Z,8.70
2022-12-25T13:10:27.296Z,8.68
2022-12-25T13:13:04.764Z,8.68
2022-12-25T13:15:40.203Z,8.64
2022-12-25T13:18:16.520Z,8.60
2022-12-25T13:20:55.434Z,8.57
2022-12-25T13:23:32.766Z,8.57
2022-12-25T13:26:13.108Z,8.58
2022-12-25T13:28:49.653Z,8.57
2022-12-25T13:31:25.136Z,8.54
2022-12-25T13:34:04.285Z,8.50
2022-12-25T13:36:41.184Z,8.47
2022-12-25T13:39:19.880Z,8.48
2022-12-25T13:42:10.316Z,8.47
2022-12-25T13:44:49.879Z,8.42
2022-12-25T13:47:31.829Z,8.39
2022-12-25T13:50:18.856Z,8.39
2022-12-25T13:52:53.431Z,8.38
2022-12-25T13:55:29.128Z,8.34
2022-12-25T13:58:05.349Z,8.34
2022-12-25T14:00:41.108Z,8.31
2022-12-25T14:03:23.794Z,8.27
2022-12-25T14:06:02.708Z,8.27
2022-12-25T14:08:38.628Z,8.23
2022-12-25T14:11:16.091Z,8.19
2022-12-25T14:13:53.139Z,8.15
2022-12-25T14:16:27.794Z,8.11
2022-12-25T14:19:04.210Z,8.07
2022-12-25T14:21:41.283Z,8.08
2022-12-25T14:24:19.100Z,8.08
2022-12-25T14:27:01.818Z,8.06
2022-12-25T14:29:41.321Z,8.04
2022-12-25T14:32:19.965Z,8.06
2022-12-25T14:34:57.026Z,8.08
2022-12-25T14:37:33.578Z,8.07
2022-12-25T14:40:23.101Z,8.05
2022-12-25T14:43:01.908Z,8.00
2022-12-25T14:45:38.908Z,7.99
2022-12-25T14:48:25.408Z,7.99
2022-12-25T14:51:04.827Z,7.97
2022-12-25T14:53:42.935Z,7.93
2022-12-25T14:56:20.746Z,7.92
2022-12-25T14:58:56.326Z,7.91
2022-12-25T15:01:33.498Z,7.92
2022-12-25T15:04:19.272Z,7.91
2022-12-25T15:06:59.787Z,8.01
2022-12-25T15:09:36.307Z,8.03
2022-12-25T15:12:10.562Z,8.00
2022-12-25T15:14:44.687Z,8.06
2022-12-25T15:17:29.117Z,8.05
2022-12-25T15:20:07.011Z,8.05
2022-12-25T15:23:10.016Z,7.95
2022-12-25T15:25:35.555Z,7.89
2022-12-25T15:28:12.993Z,7.86
2022-12-25T15:30:47.069Z,7.87
2022-12-25T15:33:21.795Z,7.87
2022-12-25T15:35:55.409Z,7.82
2022-12-25T15:38:29.310Z,7.81
2022-12-25T15:41:03.069Z,7.82
2022-12-25T15:43:40.963Z,7.83
2022-12-25T15:46:15.950Z,7.91
2022-12-25T15:48:49.754Z,7.94
2022-12-25T15:51:23.941Z,7.93
2022-12-25T15:53:58.814Z,7.95
2022-12-25T15:56:38.649Z,7.90
2022-12-25T15:59:13.959Z,7.79
2022-12-25T16:01:50.832Z,7.75
2022-12-25T16:04:26.400Z,7.71
2022-12-25T16:07:00.372Z,7.71
2022-12-25T16:09:34.225Z,7.67
2022-12-25T16:12:08.218Z,7.60
2022-12-25T16:14:42.329Z,7.55
2022-12-25T16:17:17.429Z,7.51
2022-12-25T16:19:50.972Z,7.48
2022-12-25T16:22:27.266Z,7.49
2022-12-25T16:25:01.322Z,7.53
2022-12-25T16:27:34.939Z,7.56
2022-12-25T16:30:11.294Z,7.56
2022-12-25T16:32:45.781Z,7.58
2022-12-25T16:35:19.791Z,7.62
2022-12-25T16:37:53.992Z,7.63
2022-12-25T16:40:28.115Z,7.65
2022-12-25T16:43:02.356Z,7.69
2022-12-25T16:45:41.313Z,7.73
2022-12-25T16:48:15.996Z,7.74
2022-12-25T16:50:50.003Z,7.74
2022-12-25T16:53:24.258Z,7.73
2022-12-25T16:56:09.613Z,7.66
2022-12-25T16:58:46.942Z,7.59
2022-12-25T17:01:23.869Z,7.57
2022-12-25T17:04:01.780Z,7.59
2022-12-25T17:06:35.850Z,7.61
2022-12-25T17:09:10.969Z,7.64
2022-12-25T17:11:44.986Z,7.65
2022-12-25T17:14:18.564Z,7.64
2022-12-25T17:16:52.774Z,7.62
2022-12-25T17:19:26.436Z,7.59
2022-12-25T17:22:01.204Z,7.54
2022-12-25T17:24:37.733Z,7.50
2022-12-25T17:27:11.911Z,7.51
2022-12-25T17:29:47.605Z,7.49
2022-12-25T17:32:22.024Z,7.46
2022-12-25T17:34:55.978Z,7.46
2022-12-25T17:37:29.601Z,7.45
2022-12-25T17:40:03.448Z,7.44
2022-12-25T17:42:37.413Z,7.42
2022-12-25T17:45:13.119Z,7.40
2022-12-25T17:47:47.095Z,7.39
2022-12-25T17:50:20.955Z,7.42
2022-12-25T17:52:54.790Z,7.43
2022-12-25T17:55:34.577Z,7.42
2022-12-25T17:58:09.514Z,7.46
2022-12-25T18:00:44.374Z,7.51
2022-12-25T18:03:18.652Z,7.50
2022-12-25T18:05:52.507Z,7.43
2022-12-25T18:08:26.384Z,7.39
2022-12-25T18:11:03.749Z,7.33
2022-12-25T18:13:37.691Z,7.30
2022-12-25T18:16:12.858Z,7.31
2022-12-25T18:18:51.884Z,7.26
2022-12-25T18:21:26.764Z,7.19
2022-12-25T18:24:00.495Z,7.19
2022-12-25T18:26:35.133Z,7.24
2022-12-25T18:29:09.119Z,7.30
2022-12-25T18:31:43.252Z,7.31
2022-12-25T18:34:17.326Z,7.31
2022-12-25T18:36:52.706Z,7.33
2022-12-25T18:39:26.663Z,7.32
2022-12-25T18:42:18.706Z,7.26
2022-12-25T18:44:52.376Z,7.19
2022-12-25T18:47:26.493Z,7.13
2022-12-25T18:50:01.231Z,7.08
2022-12-25T18:52:48.250Z,7.02
2022-12-25T18:55:25.609Z,6.98
2022-12-25T18:57:59.807Z,6.95
2022-12-25T19:00:34.156Z,6.94
2022-12-25T19:03:08.712Z,6.94
2022-12-25T19:05:44.118Z,6.88
2022-12-25T19:08:18.205Z,6.80
2022-12-25T19:10:52.313Z,6.74
2022-12-25T19:13:26.083Z,6.78
2022-12-25T19:16:02.875Z,6.84
2022-12-25T19:18:36.999Z,6.88
2022-12-25T19:21:13.054Z,6.87
2022-12-25T19:23:47.247Z,6.85
2022-12-25T19:26:21.285Z,6.83
2022-12-25T19:28:55.906Z,6.84
2022-12-25T19:31:29.882Z,6.84
2022-12-25T19:34:04.211Z,6.86
2022-12-25T19:36:39.539Z,6.87
2022-12-25T19:39:15.370Z,6.88
2022-12-25T19:41:50.145Z,6.83
2022-12-25T19:44:24.791Z,6.84
2022-12-25T19:46:58.561Z,6.85
2022-12-25T19:49:35.247Z,6.88
2022-12-25T19:52:10.405Z,6.90
2022-12-25T19:54:44.052Z,6.90
2022-12-25T19:57:18.075Z,6.86
2022-12-25T19:59:52.947Z,6.83
2022-12-25T20:02:27.574Z,6.84
2022-12-25T20:05:02.024Z,6.81
2022-12-25T20:07:36.747Z,6.78
2022-12-25T20:10:11.474Z,6.79
2022-12-25T20:12:46.668Z,6.84
2022-12-25T20:15:21.704Z,6.86
2022-12-25T20:17:56.243Z,6.87
2022-12-25T20:20:30.709Z,6.88
2022-12-25T20:23:05.514Z,6.92
2022-12-25T20:25:43.268Z,6.98
2022-12-25T20:28:17.786Z,7.00
2022-12-25T20:30:51.571Z,7.02
2022-12-25T20:33:26.942Z,6.98
2022-12-25T20:36:03.307Z,6.90
2022-12-25T20:38:38.660Z,6.84
2022-12-25T20:41:30.488Z,6.75
2022-12-25T20:44:04.772Z,6.65
2022-12-25T20:46:38.871Z,6.60
2022-12-25T20:49:12.694Z,6.58
2022-12-25T20:51:47.205Z,6.57
2022-12-25T20:54:20.977Z,6.55
2022-12-25T20:56:55.034Z,6.49
2022-12-25T20:59:37.000Z,6.51
2022-12-25T21:02:34.468Z,6.55
2022-12-25T21:05:08.345Z,6.60
2022-12-25T21:07:42.243Z,6.64
2022-12-25T21:10:16.134Z,6.71
2022-12-25T21:12:49.580Z,6.75
2022-12-25T21:15:24.046Z,6.77
2022-12-25T21:17:57.691Z,6.79
2022-12-25T21:20:31.191Z,6.82
2022-12-25T21:23:05.332Z,6.84
2022-12-25T21:25:39.499Z,6.84
2022-12-25T21:28:13.115Z,6.79
2022-12-25T21:30:47.042Z,6.75
2022-12-25T21:33:38.345Z,6.76
2022-12-25T21:36:13.769Z,6.76
2022-12-25T21:38:47.731Z,6.76
2022-12-25T21:41:21.976Z,6.73
2022-12-25T21:43:56.414Z,6.70
2022-12-25T21:46:30.880Z,6.61
2022-12-25T21:49:05.775Z,6.55
2022-12-25T21:51:57.280Z,6.54
2022-12-25T21:54:31.538Z,6.51
2022-12-25T21:57:05.572Z,6.45
2022-12-25T21:59:39.611Z,6.44
2022-12-25T22:02:14.117Z,6.44
2022-12-25T22:04:48.317Z,6.45
2022-12-25T22:07:22.331Z,6.43
2022-12-25T22:09:56.735Z,6.45
2022-12-25T22:12:47.700Z,6.46
2022-12-25T22:15:22.002Z,6.46
2022-12-25T22:18:13.140Z,6.45
2022-12-25T22:20:47.067Z,6.44
2022-12-25T22:23:20.649Z,6.40
2022-12-25T22:25:54.416Z,6.32
2022-12-25T22:28:27.893Z,6.28
2022-12-25T22:31:04.512Z,6.30
2022-12-25T22:33:38.389Z,6.31
2022-12-25T22:36:13.327Z,6.27
2022-12-25T22:38:47.309Z,6.26
2022-12-25T22:41:21.095Z,6.25
2022-12-25T22:44:18.862Z,6.25
2022-12-25T22:46:48.692Z,6.25
2022-12-25T22:49:22.980Z,6.26
2022-12-25T22:51:56.879Z,6.28
2022-12-25T22:54:32.949Z,6.30
2022-12-25T22:57:07.906Z,6.24
2022-12-25T22:59:41.577Z,6.19
2022-12-25T23:02:15.682Z,6.15
2022-12-25T23:04:50.074Z,6.11
2022-12-25T23:07:23.991Z,6.08
2022-12-25T23:09:59.262Z,6.05
2022-12-25T23:12:50.813Z,6.03
2022-12-25T23:15:25.353Z,5.97
2022-12-25T23:18:16.983Z,5.94
2022-12-25T23:21:08.580Z,5.90
2022-12-25T23:23:59.780Z,5.91
2022-12-25T23:26:34.097Z,5.90
2022-12-25T23:29:25.866Z,5.87
2022-12-25T23:32:00.561Z,5.85
2022-12-25T23:34:34.209Z,5.87
2022-12-25T23:37:08.824Z,5.88
2022-12-25T23:39:42.611Z,5.87
2022-12-25T23:42:16.632Z,5.89
2022-12-25T23:44:50.374Z,5.94
2022-12-25T23:47:24.653Z,5.96
2022-12-25T23:49:58.316Z,5.95
2022-12-25T23:52:31.997Z,5.92
2022-12-25T23:55:05.952Z,5.93
2022-12-25T23:57:39.632Z,5.93
